sensor_id;sensor_type;location;lat;lon;timestamp;P1;durP1;ratioP1;P2;durP2;ratioP2
85165;SDS011;75533;52.100;10.228;2024-01-06T19:16:23;9.23;;;5.13;;
85165;SDS011;75533;52.100;10.228;2024-01-06T19:18:48;7.50;;;4.93;;
85165;SDS011;75533;52.100;10.228;2024-01-06T19:21:14;6.50;;;5.10;;
85165;SDS011;75533;52.100;10.228;2024-01-06T19:23:40;6.80;;;4.10;;
85165;SDS011;75533;52.100;10.228;2024-01-06T19:26:08;7.85;;;4.90;;
85165;SDS011;75533;52.100;10.228;2024-01-06T19:28:33;8.30;;;4.20;;
85165;SDS011;75533;52.100;10.228;2024-01-06T19:31:00;9.23;;;5.05;;
85165;SDS011;75533;52.100;10.228;2024-01-06T19:33:25;7.03;;;4.82;;
85165;SDS011;75533;52.100;10.228;2024-01-06T19:35:52;8.25;;;5.03;;
85165;SDS011;75533;52.100;10.228;2024-01-06T19:38:17;6.38;;;4.60;;
85165;SDS011;75533;52.100;10.228;2024-01-06T19:40:43;7.77;;;4.90;;
85165;SDS011;75533;52.100;10.228;2024-01-06T19:43:09;8.68;;;5.10;;
85165;SDS011;75533;52.100;10.228;2024-01-06T19:45:34;6.60;;;4.43;;
85165;SDS011;75533;52.100;10.228;2024-01-06T19:47:59;7.37;;;4.87;;
85165;SDS011;75533;52.100;10.228;2024-01-06T19:50:25;8.15;;;4.82;;
85165;SDS011;75533;52.100;10.228;2024-01-06T19:52:52;8.77;;;4.90;;
85165;SDS011;75533;52.100;10.228;2024-01-06T19:55:17;7.72;;;5.38;;
85165;SDS011;75533;52.100;10.228;2024-01-06T19:57:42;7.88;;;4.95;;
85165;SDS011;75533;52.100;10.228;2024-01-06T20:00:09;7.70;;;4.53;;
85165;SDS011;75533;52.100;10.228;2024-01-06T20:02:34;5.78;;;4.38;;
85165;SDS011;75533;52.100;10.228;2024-01-06T20:05:00;8.60;;;4.50;;
85165;SDS011;75533;52.100;10.228;2024-01-06T20:07:26;6.28;;;4.35;;
85165;SDS011;75533;52.100;10.228;2024-01-06T20:09:53;6.47;;;4.60;;
85165;SDS011;75533;52.100;10.228;2024-01-06T20:12:20;7.22;;;4.57;;
85165;SDS011;75533;52.100;10.228;2024-01-06T20:14:47;6.60;;;4.47;;
85165;SDS011;75533;52.100;10.228;2024-01-06T20:17:12;9.48;;;4.47;;
85165;SDS011;75533;52.100;10.228;2024-01-06T20:19:38;6.85;;;4.45;;
85165;SDS011;75533;52.100;10.228;2024-01-06T20:22:05;7.63;;;4.45;;
85165;SDS011;75533;52.100;10.228;2024-01-06T20:24:31;10.98;;;3.92;;
85165;SDS011;75533;52.100;10.228;2024-01-06T20:26:57;7.97;;;5.00;;
85165;SDS011;75533;52.100;10.228;2024-01-06T20:29:23;6.38;;;4.30;;
85165;SDS011;75533;52.100;10.228;2024-01-06T20:31:48;7.25;;;4.40;;
85165;SDS011;75533;52.100;10.228;2024-01-06T20:34:13;7.63;;;4.70;;
85165;SDS011;75533;52.100;10.228;2024-01-06T20:36:39;5.20;;;3.88;;
85165;SDS011;75533;52.100;10.228;2024-01-06T20:39:06;7.03;;;4.28;;
85165;SDS011;75533;52.100;10.228;2024-01-06T20:41:31;5.50;;;4.22;;
85165;SDS011;75533;52.100;10.228;2024-01-06T20:43:57;7.65;;;4.43;;
85165;SDS011;75533;52.100;10.228;2024-01-06T20:46:22;7.03;;;4.73;;
85165;SDS011;75533;52.100;10.228;2024-01-06T20:48:49;6.18;;;4.28;;
85165;SDS011;75533;52.100;10.228;2024-01-06T20:51:17;6.97;;;4.28;;
85165;SDS011;75533;52.100;10.228;2024-01-06T20:53:43;6.57;;;4.18;;
85165;SDS011;75533;52.100;10.228;2024-01-06T20:56:09;6.15;;;4.15;;
85165;SDS011;75533;52.100;10.228;2024-01-06T20:58:35;6.22;;;4.22;;
85165;SDS011;75533;52.100;10.228;2024-01-06T21:01:01;6.95;;;4.88;;
85165;SDS011;75533;52.100;10.228;2024-01-06T21:03:27;6.45;;;4.05;;
85165;SDS011;75533;52.100;10.228;2024-01-06T21:05:52;7.30;;;4.30;;
85165;SDS011;75533;52.100;10.228;2024-01-06T21:08:18;5.75;;;3.88;;
85165;SDS011;75533;52.100;10.228;2024-01-06T21:10:43;7.90;;;4.20;;
85165;SDS011;75533;52.100;10.228;2024-01-06T21:13:08;7.10;;;4.07;;
85165;SDS011;75533;52.100;10.228;2024-01-06T21:15:34;5.90;;;4.13;;
85165;SDS011;75533;52.100;10.228;2024-01-06T21:17:59;6.30;;;4.07;;
85165;SDS011;75533;52.100;10.228;2024-01-06T21:20:24;5.53;;;3.90;;
85165;SDS011;75533;52.100;10.228;2024-01-06T21:22:50;7.32;;;4.40;;
85165;SDS011;75533;52.100;10.228;2024-01-06T21:25:19;7.57;;;3.70;;
85165;SDS011;75533;52.100;10.228;2024-01-06T21:27:45;6.18;;;4.00;;
85165;SDS011;75533;52.100;10.228;2024-01-06T21:30:10;8.07;;;4.27;;
85165;SDS011;75533;52.100;10.228;2024-01-06T21:32:36;6.13;;;3.97;;
85165;SDS011;75533;52.100;10.228;2024-01-06T21:35:01;5.53;;;3.87;;
85165;SDS011;75533;52.100;10.228;2024-01-06T21:37:28;6.30;;;4.07;;
85165;SDS011;75533;52.100;10.228;2024-01-06T21:39:54;6.38;;;4.10;;
85165;SDS011;75533;52.100;10.228;2024-01-06T21:42:19;7.18;;;3.70;;
85165;SDS011;75533;52.100;10.228;2024-01-06T21:44:45;6.73;;;4.17;;
85165;SDS011;75533;52.100;10.228;2024-01-06T21:47:10;6.72;;;4.32;;
85165;SDS011;75533;52.100;10.228;2024-01-06T21:49:36;6.10;;;3.60;;
85165;SDS011;75533;52.100;10.228;2024-01-06T21:52:01;5.40;;;3.83;;
85165;SDS011;75533;52.100;10.228;2024-01-06T21:54:29;6.18;;;3.65;;
85165;SDS011;75533;52.100;10.228;2024-01-06T21:56:55;5.10;;;3.67;;
85165;SDS011;75533;52.100;10.228;2024-01-06T21:59:20;6.90;;;3.83;;
85165;SDS011;75533;52.100;10.228;2024-01-06T22:01:45;5.13;;;3.60;;
85165;SDS011;75533;52.100;10.228;2024-01-06T22:04:11;6.22;;;4.15;;
85165;SDS011;75533;52.100;10.228;2024-01-06T22:06:37;6.47;;;4.25;;
85165;SDS011;75533;52.100;10.228;2024-01-06T22:09:02;6.38;;;3.70;;
85165;SDS011;75533;52.100;10.228;2024-01-06T22:11:28;6.18;;;4.32;;
85165;SDS011;75533;52.100;10.228;2024-01-06T22:13:54;6.63;;;4.20;;
85165;SDS011;75533;52.100;10.228;2024-01-06T22:16:19;5.68;;;3.70;;
85165;SDS011;75533;52.100;10.228;2024-01-06T22:18:45;5.07;;;3.40;;
85165;SDS011;75533;52.100;10.228;2024-01-06T22:21:10;4.75;;;3.40;;
85165;SDS011;75533;52.100;10.228;2024-01-06T22:23:37;6.82;;;3.50;;
85165;SDS011;75533;52.100;10.228;2024-01-06T22:26:02;6.25;;;3.25;;
85165;SDS011;75533;52.100;10.228;2024-01-06T22:28:28;5.82;;;3.72;;
85165;SDS011;75533;52.100;10.228;2024-01-06T22:30:53;5.93;;;3.90;;
85165;SDS011;75533;52.100;10.228;2024-01-06T22:33:18;5.03;;;3.50;;
85165;SDS011;75533;52.100;10.228;2024-01-06T22:35:44;5.28;;;3.60;;
85165;SDS011;75533;52.100;10.228;2024-01-06T22:38:09;7.83;;;3.70;;
85165;SDS011;75533;52.100;10.228;2024-01-06T22:40:35;5.90;;;3.63;;
85165;SDS011;75533;52.100;10.228;2024-01-06T22:43:01;6.35;;;3.83;;
85165;SDS011;75533;52.100;10.228;2024-01-06T22:45:27;6.60;;;3.40;;
85165;SDS011;75533;52.100;10.228;2024-01-06T22:47:56;10.40;;;4.05;;
85165;SDS011;75533;52.100;10.228;2024-01-06T22:50:22;4.47;;;3.42;;
85165;SDS011;75533;52.100;10.228;2024-01-06T22:52:47;5.28;;;3.63;;
85165;SDS011;75533;52.100;10.228;2024-01-06T22:55:12;5.03;;;3.43;;
85165;SDS011;75533;52.100;10.228;2024-01-06T22:57:38;5.07;;;3.83;;
85165;SDS011;75533;52.100;10.228;2024-01-06T23:00:04;5.80;;;3.33;;
85165;SDS011;75533;52.100;10.228;2024-01-06T23:02:40;4.55;;;3.47;;
85165;SDS011;75533;52.100;10.228;2024-01-06T23:05:06;5.65;;;3.88;;
85165;SDS011;75533;52.100;10.228;2024-01-06T23:07:31;7.30;;;3.97;;
85165;SDS011;75533;52.100;10.228;2024-01-06T23:09:57;4.95;;;3.72;;
85165;SDS011;75533;52.100;10.228;2024-01-06T23:12:22;6.67;;;3.60;;
85165;SDS011;75533;52.100;10.228;2024-01-06T23:14:47;6.60;;;3.90;;
85165;SDS011;75533;52.100;10.228;2024-01-06T23:17:13;7.20;;;3.60;;
85165;SDS011;75533;52.100;10.228;2024-01-06T23:19:38;5.93;;;3.87;;
85165;SDS011;75533;52.100;10.228;2024-01-06T23:22:03;5.82;;;3.47;;
85165;SDS011;75533;52.100;10.228;2024-01-06T23:24:29;5.20;;;3.42;;
85165;SDS011;75533;52.100;10.228;2024-01-06T23:26:54;5.83;;;3.60;;
85165;SDS011;75533;52.100;10.228;2024-01-06T23:29:21;6.10;;;3.90;;
85165;SDS011;75533;52.100;10.228;2024-01-06T23:31:47;7.63;;;3.88;;
85165;SDS011;75533;52.100;10.228;2024-01-06T23:34:12;6.97;;;3.67;;
85165;SDS011;75533;52.100;10.228;2024-01-06T23:36:37;6.60;;;4.17;;
85165;SDS011;75533;52.100;10.228;2024-01-06T23:39:02;5.83;;;4.00;;
85165;SDS011;75533;52.100;10.228;2024-01-06T23:41:28;5.25;;;3.45;;
85165;SDS011;75533;52.100;10.228;2024-01-06T23:43:53;5.27;;;3.70;;
85165;SDS011;75533;52.100;10.228;2024-01-06T23:46:19;5.33;;;3.73;;
85165;SDS011;75533;52.100;10.228;2024-01-06T23:48:49;6.40;;;3.58;;
85165;SDS011;75533;52.100;10.228;2024-01-06T23:51:17;5.22;;;3.40;;
85165;SDS011;75533;52.100;10.228;2024-01-06T23:53:42;5.10;;;3.38;;
85165;SDS011;75533;52.100;10.228;2024-01-06T23:56:08;5.47;;;3.92;;
85165;SDS011;75533;52.100;10.228;2024-01-06T23:58:33;5.03;;;3.37;;
